Time;durP1;ratioP1;P1;durP2;ratioP2;P2;SDS_P1;SDS_P2;PMS_P1;PMS_P2;Temp;Humidity;BMP_temperature;BMP_pressure;BME280_temperature;BME280_humidity;BME280_pressure;Samples;Min_cycle;Max_cycle;Signal;HPM_P1;HPM_P2
2023/07/28 00:00:35;;;;;;;41.95;18.73;;;17.60;99.90;;;;;;5100114;28;20040;-59
2023/07/28 00:03:01;;;;;;;37.60;16.60;;;17.80;99.90;;;;;;5099587;28;20043;-60
2023/07/28 00:05:26;;;;;;;40.00;17.33;;;17.80;99.90;;;;;;5098863;28;20044;-60
2023/07/28 00:07:52;;;;;;;33.03;16.60;;;17.80;99.90;;;;;;5100178;28;20052;-60
2023/07/28 00:10:18;;;;;;;38.97;16.92;;;17.70;99.90;;;;;;5098198;28;20039;-60
2023/07/28 00:12:43;;;;;;;32.92;15.82;;;17.50;99.90;;;;;;5082214;28;20107;-60
2023/07/28 00:15:09;;;;;;;35.95;16.90;;;17.90;99.90;;;;;;5098055;28;20044;-59
2023/07/28 00:17:35;;;;;;;36.80;16.55;;;17.90;99.90;;;;;;5064949;28;20345;-60
2023/07/28 00:20:01;;;;;;;35.25;14.95;;;17.70;99.90;;;;;;5080486;28;20048;-59
2023/07/28 00:22:27;;;;;;;31.05;14.43;;;17.70;99.90;;;;;;5098519;28;20130;-60
2023/07/28 00:24:52;;;;;;;35.40;15.45;;;17.80;99.90;;;;;;5099738;28;20427;-59
2023/07/28 00:27:18;;;;;;;37.13;17.27;;;17.50;99.90;;;;;;5097884;28;20044;-62
2023/07/28 00:29:44;;;;;;;29.40;15.13;;;17.60;99.90;;;;;;5090433;28;20048;-60
2023/07/28 00:32:09;;;;;;;37.38;15.88;;;17.80;99.90;;;;;;5082570;28;20062;-59
2023/07/28 00:34:35;;;;;;;30.58;16.25;;;17.70;99.90;;;;;;5079256;28;20041;-60
2023/07/28 00:37:01;;;;;;;31.42;16.23;;;17.90;99.90;;;;;;5078423;28;20040;-59
2023/07/28 00:39:26;;;;;;;37.20;16.08;;;17.50;99.90;;;;;;5077723;28;20151;-60
2023/07/28 00:41:52;;;;;;;29.23;15.70;;;17.50;99.90;;;;;;5079278;28;20048;-59
2023/07/28 00:44:18;;;;;;;32.22;16.33;;;17.60;99.90;;;;;;5077476;28;20109;-60
2023/07/28 00:46:45;;;;;;;38.13;16.15;;;17.70;99.90;;;;;;5079415;28;20488;-60
2023/07/28 00:49:11;;;;;;;29.98;15.38;;;17.90;99.90;;;;;;5077105;28;20051;-60
2023/07/28 00:51:37;;;;;;;37.13;15.52;;;17.80;99.90;;;;;;5078834;28;20068;-60
2023/07/28 00:54:05;;;;;;;33.45;15.82;;;17.90;99.90;;;;;;5077224;28;20052;-60
2023/07/28 00:56:31;;;;;;;29.55;15.05;;;17.80;99.90;;;;;;5082212;28;20429;-60
2023/07/28 00:58:57;;;;;;;38.60;15.57;;;17.80;99.90;;;;;;5099342;28;20071;-60
2023/07/28 01:01:23;;;;;;;35.50;15.77;;;17.80;99.90;;;;;;5097048;28;20103;-60
2023/07/28 01:03:50;;;;;;;34.28;16.25;;;17.60;99.90;;;;;;5099357;28;20084;-60
2023/07/28 01:06:44;;;;;;;30.85;15.52;;;17.60;99.90;;;;;;5096990;28;20495;-60
2023/07/28 01:09:13;;;;;;;39.72;17.10;;;17.50;99.90;;;;;;5098689;28;20456;-60
2023/07/28 01:11:55;;;;;;;36.50;16.27;;;17.70;99.90;;;;;;5099135;28;20040;-60
2023/07/28 01:14:21;;;;;;;35.28;16.45;;;17.70;99.90;;;;;;5096813;28;20055;-60
2023/07/28 01:16:47;;;;;;;43.75;17.70;;;17.50;99.90;;;;;;5098648;28;20036;-60
2023/07/28 01:19:16;;;;;;;38.72;17.50;;;17.80;99.90;;;;;;5096608;28;20059;-60
2023/07/28 01:21:43;;;;;;;35.28;16.55;;;17.60;99.90;;;;;;5098119;28;20078;-61
2023/07/28 01:24:37;;;;;;;40.45;16.90;;;17.50;99.90;;;;;;5097726;28;20136;-61
2023/07/28 01:27:03;;;;;;;34.50;16.02;;;17.50;99.90;;;;;;5096778;28;20039;-61
2023/07/28 01:29:29;;;;;;;34.38;16.38;;;17.80;99.90;;;;;;5099030;28;20122;-60
2023/07/28 01:31:58;;;;;;;36.95;16.52;;;17.60;99.90;;;;;;5096719;28;20047;-60
2023/07/28 01:34:24;;;;;;;37.92;16.00;;;17.80;99.90;;;;;;5098321;28;20055;-60
2023/07/28 01:36:49;;;;;;;33.22;15.10;;;17.70;99.90;;;;;;5097308;28;20047;-60
2023/07/28 01:39:15;;;;;;;36.50;15.90;;;17.70;99.90;;;;;;5079528;28;20071;-61
2023/07/28 01:41:43;;;;;;;33.42;15.75;;;17.50;99.90;;;;;;5098450;28;20043;-60
2023/07/28 01:44:10;;;;;;;38.60;16.27;;;17.60;99.90;;;;;;5096918;28;20059;-62
2023/07/28 01:46:35;;;;;;;32.28;16.02;;;17.80;99.90;;;;;;5098768;28;20476;-60
2023/07/28 01:49:01;;;;;;;38.13;16.00;;;17.80;99.90;;;;;;5096552;28;20051;-60
2023/07/28 01:51:27;;;;;;;35.90;15.27;;;17.50;99.90;;;;;;5098412;28;20560;-60
2023/07/28 01:53:52;;;;;;;35.47;16.70;;;17.90;99.90;;;;;;5097013;28;20044;-60
2023/07/28 01:56:18;;;;;;;33.88;14.35;;;17.70;99.90;;;;;;5095333;28;20049;-60
2023/07/28 01:58:43;;;;;;;30.50;14.15;;;17.70;99.90;;;;;;5060011;28;20052;-59
2023/07/28 02:01:09;;;;;;;33.20;14.18;;;17.70;99.90;;;;;;5076453;28;20123;-60
2023/07/28 02:03:35;;;;;;;32.40;14.05;;;17.70;99.90;;;;;;5077004;28;20051;-60
2023/07/28 02:06:01;;;;;;;29.73;15.30;;;17.50;99.90;;;;;;5096461;28;20102;-60
2023/07/28 02:08:26;;;;;;;37.10;15.40;;;17.50;99.90;;;;;;5098698;28;20040;-61
2023/07/28 02:10:53;;;;;;;32.53;14.15;;;17.50;99.90;;;;;;5096183;28;20032;-61
2023/07/28 02:13:19;;;;;;;31.20;14.88;;;17.80;99.90;;;;;;5097780;28;20043;-60
2023/07/28 02:15:45;;;;;;;30.30;14.05;;;17.90;99.90;;;;;;5097775;28;20048;-60
2023/07/28 02:18:11;;;;;;;32.03;15.38;;;17.80;99.90;;;;;;5098107;28;20050;-61
2023/07/28 02:20:37;;;;;;;33.22;15.30;;;17.70;99.90;;;;;;5102315;28;20403;-61
2023/07/28 02:23:03;;;;;;;34.17;15.38;;;17.90;99.90;;;;;;5100070;28;20123;-60
2023/07/28 02:25:29;;;;;;;39.53;15.57;;;17.80;99.90;;;;;;5100010;28;20036;-60
2023/07/28 02:27:54;;;;;;;45.13;15.50;;;17.60;99.90;;;;;;5081306;28;20033;-61
2023/07/28 02:30:20;;;;;;;39.22;16.48;;;17.50;99.90;;;;;;5081600;28;20053;-60
2023/07/28 02:32:46;;;;;;;32.90;16.45;;;17.70;99.90;;;;;;5080939;28;20066;-59
2023/07/28 02:35:11;;;;;;;32.58;16.15;;;17.70;99.90;;;;;;5080530;28;20460;-60
2023/07/28 02:37:37;;;;;;;32.40;16.35;;;17.70;99.90;;;;;;5082008;28;20510;-59
2023/07/28 02:40:03;;;;;;;32.45;15.02;;;17.80;99.90;;;;;;5079115;28;20037;-59
2023/07/28 02:42:30;;;;;;;42.40;15.70;;;17.70;99.90;;;;;;5081428;28;20041;-60
2023/07/28 02:44:56;;;;;;;32.92;16.05;;;17.70;99.90;;;;;;5079796;28;20086;-60
2023/07/28 02:47:21;;;;;;;36.55;16.30;;;17.80;99.90;;;;;;5081298;28;20044;-60
2023/07/28 02:49:47;;;;;;;34.60;14.85;;;17.50;99.90;;;;;;5080641;28;20076;-60
2023/07/28 02:52:13;;;;;;;36.40;16.60;;;17.50;99.90;;;;;;5080002;28;20441;-63
2023/07/28 02:54:39;;;;;;;37.38;16.30;;;17.90;99.90;;;;;;5081231;28;20044;-59
2023/07/28 02:57:04;;;;;;;27.88;15.15;;;17.50;99.90;;;;;;5087781;28;20068;-60
2023/07/28 02:59:30;;;;;;;37.58;15.95;;;17.90;99.90;;;;;;5101702;28;20040;-60
2023/07/28 03:01:57;;;;;;;32.25;15.45;;;17.60;99.90;;;;;;5099348;28;20550;-61
2023/07/28 03:04:23;;;;;;;32.13;15.05;;;17.70;99.90;;;;;;5101129;28;20059;-61
2023/07/28 03:06:48;;;;;;;40.70;15.00;;;17.70;99.90;;;;;;5081804;28;20048;-59
2023/07/28 03:09:15;;;;;;;34.85;15.90;;;17.50;99.90;;;;;;5100375;28;20040;-61
2023/07/28 03:11:42;;;;;;;31.63;14.93;;;17.80;99.90;;;;;;5101273;28;20044;-60
2023/07/28 03:14:08;;;;;;;30.65;14.63;;;17.50;99.90;;;;;;5098982;28;20097;-60
2023/07/28 03:16:34;;;;;;;30.65;14.40;;;17.70;99.90;;;;;;5091840;28;20040;-59
2023/07/28 03:18:59;;;;;;;29.15;13.93;;;17.50;99.90;;;;;;5078612;28;20044;-62
2023/07/28 03:21:25;;;;;;;30.30;14.75;;;17.40;99.90;;;;;;5080516;28;20129;-60
2023/07/28 03:23:51;;;;;;;34.15;13.85;;;17.40;99.90;;;;;;5079413;28;20056;-59
2023/07/28 03:26:16;;;;;;;29.88;14.48;;;17.60;99.90;;;;;;5080260;28;20056;-60
2023/07/28 03:28:42;;;;;;;26.60;13.30;;;17.50;99.90;;;;;;5080671;28;20051;-60
2023/07/28 03:31:07;;;;;;;32.25;14.35;;;17.50;99.90;;;;;;5079118;28;20112;-61
2023/07/28 03:33:33;;;;;;;27.42;12.68;;;17.50;99.90;;;;;;5081189;28;20071;-60
2023/07/28 03:35:59;;;;;;;26.65;13.60;;;17.40;99.90;;;;;;5078789;28;20059;-60
2023/07/28 03:38:24;;;;;;;33.50;14.52;;;17.70;99.90;;;;;;5080508;28;20045;-60
2023/07/28 03:40:50;;;;;;;28.65;12.52;;;17.50;99.90;;;;;;5078768;28;20078;-59
2023/07/28 03:43:16;;;;;;;31.60;12.95;;;17.40;99.90;;;;;;5080299;28;20052;-60
2023/07/28 03:45:42;;;;;;;27.65;12.25;;;17.60;99.90;;;;;;5080116;28;20090;-60
2023/07/28 03:48:08;;;;;;;26.38;11.13;;;17.60;99.90;;;;;;5078432;28;20033;-60
2023/07/28 03:50:33;;;;;;;28.23;11.52;;;17.50;99.90;;;;;;5080772;28;20055;-60
2023/07/28 03:52:59;;;;;;;30.77;12.55;;;17.80;99.90;;;;;;5078117;28;20044;-60
2023/07/28 03:55:24;;;;;;;26.08;11.90;;;17.80;99.90;;;;;;5090602;28;20454;-59
2023/07/28 03:57:50;;;;;;;26.15;11.32;;;17.60;99.90;;;;;;5083126;28;20479;-60
2023/07/28 04:00:16;;;;;;;20.95;11.20;;;17.80;99.90;;;;;;5080189;28;20484;-60
2023/07/28 04:02:41;;;;;;;24.90;10.45;;;17.50;99.90;;;;;;5079081;28;20428;-59
2023/07/28 04:05:08;;;;;;;26.73;11.02;;;17.60;99.90;;;;;;5079070;28;20040;-60
2023/07/28 04:07:33;;;;;;;25.83;11.52;;;17.50;99.90;;;;;;5080131;28;20514;-59
2023/07/28 04:09:59;;;;;;;27.83;11.90;;;17.50;99.90;;;;;;5060039;28;20100;-60
2023/07/28 04:12:24;;;;;;;28.02;12.55;;;17.60;99.90;;;;;;5062454;28;20059;-60
2023/07/28 04:14:50;;;;;;;26.38;12.32;;;17.80;99.90;;;;;;5078089;28;20050;-60
2023/07/28 04:17:16;;;;;;;25.25;12.80;;;17.80;99.90;;;;;;5079725;28;20104;-60
2023/07/28 04:19:41;;;;;;;25.33;12.88;;;17.90;99.90;;;;;;5078192;28;20052;-59
2023/07/28 04:22:07;;;;;;;24.35;13.15;;;17.90;99.90;;;;;;5078524;28;20175;-60
2023/07/28 04:24:33;;;;;;;28.23;12.52;;;17.70;99.90;;;;;;5062103;28;20048;-60
2023/07/28 04:26:58;;;;;;;25.27;12.80;;;17.50;99.90;;;;;;5077920;28;20041;-60
2023/07/28 04:29:24;;;;;;;28.15;12.40;;;17.60;99.90;;;;;;5079857;28;20469;-60
2023/07/28 04:31:50;;;;;;;25.20;11.32;;;17.80;99.90;;;;;;5078015;28;20082;-59
2023/07/28 04:34:15;;;;;;;26.85;11.80;;;17.50;99.90;;;;;;5079507;28;20036;-59
2023/07/28 04:36:41;;;;;;;23.25;12.68;;;17.80;99.90;;;;;;5078023;28;20049;-61
2023/07/28 04:39:07;;;;;;;22.30;12.38;;;17.60;99.90;;;;;;5098283;28;20044;-62
2023/07/28 04:41:32;;;;;;;25.63;11.98;;;17.80;99.90;;;;;;5099184;28;20051;-67
2023/07/28 04:43:58;;;;;;;24.10;12.13;;;17.50;99.90;;;;;;5097905;28;20098;-61
2023/07/28 04:46:24;;;;;;;22.50;11.88;;;17.80;99.90;;;;;;5099886;28;20079;-61
2023/07/28 04:48:49;;;;;;;23.05;11.85;;;17.60;99.90;;;;;;5097448;28;20051;-58
2023/07/28 04:51:15;;;;;;;21.23;11.35;;;17.80;99.90;;;;;;5099344;28;20040;-59
2023/07/28 04:53:41;;;;;;;22.65;11.07;;;17.80;99.90;;;;;;5097700;28;20040;-59
2023/07/28 04:56:07;;;;;;;23.20;12.07;;;17.90;99.90;;;;;;5098125;28;20058;-58
2023/07/28 04:58:33;;;;;;;18.30;10.52;;;17.70;99.90;;;;;;5078556;28;20048;-58
2023/07/28 05:00:59;;;;;;;21.13;10.90;;;17.60;99.90;;;;;;5077692;28;20616;-58
2023/07/28 05:03:25;;;;;;;19.40;10.70;;;17.90;99.90;;;;;;5079479;28;20049;-58
2023/07/28 05:05:50;;;;;;;24.10;12.32;;;17.60;99.90;;;;;;5076817;28;20133;-59
2023/07/28 05:08:16;;;;;;;18.80;12.00;;;17.90;99.90;;;;;;5078975;28;20048;-58
2023/07/28 05:10:45;;;;;;;21.83;11.32;;;17.70;99.90;;;;;;5077092;28;20078;-59
2023/07/28 05:13:11;;;;;;;21.35;11.48;;;17.70;99.90;;;;;;5078722;28;20064;-58
2023/07/28 05:15:36;;;;;;;22.52;11.60;;;17.60;99.90;;;;;;5078217;28;20052;-58
2023/07/28 05:18:02;;;;;;;16.75;10.63;;;17.70;99.90;;;;;;5076892;28;20487;-59
2023/07/28 05:20:28;;;;;;;18.42;10.40;;;17.60;99.90;;;;;;5078642;28;20059;-59
2023/07/28 05:22:54;;;;;;;19.70;11.13;;;17.80;99.90;;;;;;5076341;28;20067;-59
2023/07/28 05:25:19;;;;;;;19.05;11.38;;;17.90;99.90;;;;;;5078658;28;20063;-59
2023/07/28 05:27:45;;;;;;;19.08;11.20;;;17.70;99.90;;;;;;5076605;28;20129;-59
2023/07/28 05:30:11;;;;;;;18.98;10.32;;;17.80;99.90;;;;;;5078435;28;20464;-59
2023/07/28 05:32:36;;;;;;;21.85;9.90;;;17.50;99.90;;;;;;5077371;28;20043;-58
2023/07/28 05:35:02;;;;;;;20.63;10.50;;;17.90;99.90;;;;;;5077170;28;20052;-60
2023/07/28 05:37:28;;;;;;;19.38;10.52;;;17.70;99.90;;;;;;5078967;28;20044;-59
2023/07/28 05:39:53;;;;;;;16.70;10.43;;;17.60;99.90;;;;;;5076709;28;20462;-59
2023/07/28 05:42:19;;;;;;;24.00;10.07;;;17.60;99.90;;;;;;5078861;28;20490;-56
2023/07/28 05:44:45;;;;;;;19.50;10.45;;;17.70;99.90;;;;;;5076574;28;20561;-59
2023/07/28 05:47:10;;;;;;;17.40;9.70;;;17.90;99.90;;;;;;5078449;28;20058;-58
2023/07/28 05:49:36;;;;;;;18.42;10.30;;;17.70;99.90;;;;;;5076779;28;20104;-59
2023/07/28 05:52:02;;;;;;;17.80;9.77;;;17.60;99.90;;;;;;5058023;28;20083;-59
2023/07/28 05:54:28;;;;;;;16.75;10.73;;;17.60;99.90;;;;;;5078680;28;20815;-59
2023/07/28 05:56:53;;;;;;;17.85;10.15;;;18.00;99.90;;;;;;5084828;28;20071;-59
2023/07/28 05:59:19;;;;;;;18.15;11.45;;;18.00;99.90;;;;;;5099499;28;20127;-58
2023/07/28 06:01:45;;;;;;;16.70;11.60;;;17.60;99.90;;;;;;5097313;28;20047;-59
2023/07/28 06:04:11;;;;;;;15.10;10.70;;;17.90;99.90;;;;;;5098796;28;20047;-59
2023/07/28 06:06:36;;;;;;;15.88;11.48;;;17.90;99.90;;;;;;5097822;28;20036;-59
2023/07/28 06:09:02;;;;;;;18.42;11.20;;;17.90;99.90;;;;;;5098910;28;20083;-58
2023/07/28 06:11:28;;;;;;;19.70;12.32;;;17.80;99.90;;;;;;5098935;28;20040;-59
2023/07/28 06:13:53;;;;;;;20.58;12.75;;;17.90;99.90;;;;;;5097758;28;20101;-59
2023/07/28 06:16:19;;;;;;;18.40;12.77;;;17.90;99.90;;;;;;5099227;28;20099;-58
2023/07/28 06:18:45;;;;;;;19.45;13.70;;;17.80;99.90;;;;;;5097007;28;20384;-58
2023/07/28 06:21:10;;;;;;;16.38;13.52;;;17.80;99.90;;;;;;5098590;28;20059;-59
2023/07/28 06:23:36;;;;;;;18.63;13.65;;;18.00;99.90;;;;;;5097197;28;20052;-58
2023/07/28 06:26:02;;;;;;;19.75;13.77;;;18.00;99.90;;;;;;5098585;28;20040;-59
2023/07/28 06:28:27;;;;;;;20.00;13.80;;;17.90;99.90;;;;;;5098026;28;20040;-58
2023/07/28 06:30:58;;;;;;;19.20;13.90;;;17.90;99.90;;;;;;5097642;28;20036;-59
2023/07/28 06:33:28;;;;;;;19.98;14.48;;;18.00;99.90;;;;;;5099229;28;20059;-60
2023/07/28 06:35:54;;;;;;;19.35;14.27;;;17.80;99.90;;;;;;5096216;28;20550;-58
2023/07/28 06:38:20;;;;;;;17.52;14.07;;;17.80;99.90;;;;;;5097914;28;20032;-58
2023/07/28 06:40:45;;;;;;;19.40;14.30;;;18.10;99.90;;;;;;5095665;28;20048;-58
2023/07/28 06:43:11;;;;;;;21.55;13.75;;;18.00;99.90;;;;;;5097696;28;20208;-59
2023/07/28 06:45:37;;;;;;;18.00;13.88;;;17.90;99.90;;;;;;5097019;28;20040;-58
2023/07/28 06:48:03;;;;;;;19.95;13.52;;;17.80;99.90;;;;;;5095930;28;20058;-59
2023/07/28 06:50:28;;;;;;;19.27;13.10;;;17.90;99.90;;;;;;5097907;28;20071;-58
2023/07/28 06:52:54;;;;;;;18.30;13.25;;;18.00;99.90;;;;;;5095007;28;20059;-58
2023/07/28 06:55:21;;;;;;;19.23;13.68;;;17.90;99.90;;;;;;5097551;28;20043;-59
2023/07/28 06:57:47;;;;;;;15.95;12.48;;;18.20;99.90;;;;;;5095325;28;20040;-58
2023/07/28 07:00:14;;;;;;;17.05;12.75;;;18.10;99.90;;;;;;5097353;28;20576;-60
2023/07/28 07:02:40;;;;;;;16.73;12.50;;;18.20;99.90;;;;;;5096444;28;20044;-58
2023/07/28 07:05:09;;;;;;;16.80;11.77;;;18.30;99.90;;;;;;5095478;28;20094;-60
2023/07/28 07:07:34;;;;;;;16.23;11.70;;;18.50;99.90;;;;;;5097899;28;20097;-61
2023/07/28 07:10:00;;;;;;;15.40;12.00;;;18.40;99.90;;;;;;5095148;28;20044;-58
2023/07/28 07:12:26;;;;;;;16.85;11.57;;;18.40;99.90;;;;;;5078879;28;20401;-58
2023/07/28 07:14:51;;;;;;;16.17;11.00;;;18.40;99.90;;;;;;5095143;28;20043;-58
2023/07/28 07:17:17;;;;;;;15.07;11.02;;;18.70;99.90;;;;;;5096518;28;20040;-59
2023/07/28 07:19:43;;;;;;;11.68;9.05;;;18.60;99.90;;;;;;5096086;28;20052;-58
2023/07/28 07:22:09;;;;;;;10.23;7.75;;;18.50;99.90;;;;;;5095819;28;20055;-59
2023/07/28 07:24:35;;;;;;;10.90;7.63;;;18.50;99.90;;;;;;5097495;28;20052;-58
2023/07/28 07:27:01;;;;;;;11.15;7.85;;;18.60;99.90;;;;;;5095051;28;20028;-58
2023/07/28 07:29:26;;;;;;;10.57;6.97;;;18.60;99.90;;;;;;5096735;28;20052;-59
2023/07/28 07:31:55;;;;;;;9.68;7.13;;;18.60;99.90;;;;;;5094687;28;20040;-59
2023/07/28 07:34:22;;;;;;;11.13;8.05;;;18.80;99.90;;;;;;5096824;28;20096;-58
2023/07/28 07:36:47;;;;;;;12.30;8.20;;;18.80;99.90;;;;;;5077377;28;20119;-58
2023/07/28 07:39:13;;;;;;;11.65;8.60;;;18.90;99.90;;;;;;5095980;28;20075;-59
2023/07/28 07:41:39;;;;;;;9.65;7.50;;;18.80;99.90;;;;;;5096512;28;20110;-59
2023/07/28 07:44:05;;;;;;;10.05;8.00;;;18.80;99.90;;;;;;5094993;28;20620;-58
2023/07/28 07:46:30;;;;;;;12.45;8.57;;;18.80;99.90;;;;;;5096663;28;20055;-58
2023/07/28 07:48:56;;;;;;;12.35;8.88;;;18.70;99.90;;;;;;5094540;28;20047;-58
2023/07/28 07:51:22;;;;;;;12.40;8.75;;;18.70;99.90;;;;;;5096305;28;20071;-58
2023/07/28 07:53:47;;;;;;;11.35;8.38;;;18.90;99.90;;;;;;5094749;28;20094;-58
2023/07/28 07:56:13;;;;;;;11.57;7.90;;;18.80;99.90;;;;;;5093881;28;20039;-59
2023/07/28 07:58:42;;;;;;;9.98;8.25;;;18.90;99.90;;;;;;5058814;28;20055;-57
2023/07/28 08:01:07;;;;;;;9.38;6.95;;;19.00;99.90;;;;;;5073885;28;20049;-58
2023/07/28 08:03:33;;;;;;;11.82;8.45;;;18.90;99.90;;;;;;5076163;28;20059;-59
2023/07/28 08:05:59;;;;;;;10.98;8.35;;;18.90;99.90;;;;;;5073537;28;20084;-58
2023/07/28 08:08:27;;;;;;;10.48;7.80;;;19.10;99.90;;;;;;5075797;28;20040;-58
2023/07/28 08:10:52;;;;;;;10.90;7.78;;;19.00;99.90;;;;;;5074099;28;20071;-58
2023/07/28 08:13:18;;;;;;;11.70;7.75;;;19.00;99.90;;;;;;5075109;28;20032;-60
2023/07/28 08:15:45;;;;;;;10.65;7.65;;;18.90;99.90;;;;;;5075866;28;20567;-58
2023/07/28 08:18:13;;;;;;;10.57;8.10;;;19.00;99.90;;;;;;5093898;28;20123;-57
2023/07/28 08:20:39;;;;;;;13.50;9.43;;;18.90;99.90;;;;;;5096093;28;20214;-58
2023/07/28 08:23:05;;;;;;;11.73;8.63;;;19.00;99.90;;;;;;5093911;28;20059;-58
2023/07/28 08:25:31;;;;;;;13.77;9.48;;;19.10;99.90;;;;;;5095761;28;20063;-58
2023/07/28 08:27:56;;;;;;;11.98;9.18;;;19.20;99.90;;;;;;5093563;28;20076;-58
2023/07/28 08:30:22;;;;;;;14.52;9.95;;;19.00;99.90;;;;;;5095381;28;20094;-58
2023/07/28 08:32:48;;;;;;;14.48;9.98;;;19.10;99.90;;;;;;5095352;28;20090;-58
2023/07/28 08:35:14;;;;;;;13.30;10.13;;;19.30;99.90;;;;;;5093974;28;20103;-58
2023/07/28 08:37:40;;;;;;;11.93;9.48;;;19.30;99.90;;;;;;5095727;28;20078;-58
2023/07/28 08:40:06;;;;;;;14.07;9.80;;;19.40;99.90;;;;;;5092653;28;20040;-58
2023/07/28 08:42:37;;;;;;;12.20;9.07;;;19.20;99.90;;;;;;5095122;28;20076;-59
2023/07/28 08:45:10;;;;;;;12.98;9.13;;;19.30;99.90;;;;;;5094056;28;20059;-58
2023/07/28 08:47:37;;;;;;;12.55;8.57;;;19.40;99.90;;;;;;5094069;28;20464;-58
2023/07/28 08:50:03;;;;;;;10.73;8.23;;;19.60;99.90;;;;;;5095046;28;20073;-58
2023/07/28 08:52:29;;;;;;;12.98;8.93;;;19.50;99.90;;;;;;5092231;28;20129;-58
2023/07/28 08:54:54;;;;;;;13.00;9.00;;;19.40;99.90;;;;;;5095552;28;20059;-58
2023/07/28 08:57:20;;;;;;;12.80;9.55;;;19.50;99.90;;;;;;5081515;28;20070;-59
2023/07/28 08:59:49;;;;;;;11.90;8.95;;;19.50;99.90;;;;;;5074196;28;20556;-58
2023/07/28 09:02:18;;;;;;;10.90;8.02;;;19.40;99.90;;;;;;5071705;28;20067;-58
2023/07/28 09:04:45;;;;;;;9.15;6.88;;;19.50;99.90;;;;;;5073749;28;20040;-58
2023/07/28 09:07:11;;;;;;;12.15;8.73;;;19.60;99.90;;;;;;5074699;28;20479;-58
2023/07/28 09:09:37;;;;;;;9.90;7.50;;;19.50;99.90;;;;;;5072883;28;20048;-59
2023/07/28 09:12:03;;;;;;;9.32;7.03;;;19.50;99.90;;;;;;5056631;28;20063;-59
2023/07/28 09:14:30;;;;;;;10.68;6.70;;;19.50;99.90;;;;;;5072839;28;20048;-59
2023/07/28 09:16:55;;;;;;;8.63;6.07;;;19.70;99.90;;;;;;5074220;28;20040;-58
2023/07/28 09:19:21;;;;;;;8.00;6.15;;;19.70;99.90;;;;;;5073102;28;20418;-59
2023/07/28 09:22:01;;;;;;;8.07;5.05;;;19.90;99.90;;;;;;5084388;28;20056;-58
2023/07/28 09:24:32;;;;;;;8.77;6.00;;;19.70;99.90;;;;;;5083557;28;20055;-58
2023/07/28 09:26:59;;;;;;;8.33;5.40;;;19.90;99.90;;;;;;5072586;28;20060;-58
2023/07/28 09:29:27;;;;;;;9.10;5.07;;;20.00;99.90;;;;;;5074125;28;20062;-58
2023/07/28 09:32:02;;;;;;;7.85;5.63;;;20.20;99.90;;;;;;5072981;28;20121;-58
2023/07/28 09:34:28;;;;;;;8.07;5.35;;;20.40;99.90;;;;;;5074357;28;20044;-58
2023/07/28 09:36:55;;;;;;;7.90;5.30;;;20.50;99.90;;;;;;5073682;28;20044;-57
2023/07/28 09:39:22;;;;;;;7.65;5.13;;;20.60;99.90;;;;;;5055220;28;20495;-58
2023/07/28 09:41:47;;;;;;;7.00;4.90;;;20.50;99.90;;;;;;5074369;28;20047;-58
2023/07/28 09:44:14;;;;;;;8.43;5.03;;;21.00;99.90;;;;;;5072467;28;20095;-58
2023/07/28 09:47:00;;;;;;;7.07;4.25;;;20.70;99.90;;;;;;5074575;28;20045;-58
2023/07/28 09:49:35;;;;;;;6.63;4.30;;;20.60;99.90;;;;;;5071973;28;20060;-59
2023/07/28 09:52:05;;;;;;;6.95;4.43;;;20.60;99.90;;;;;;5072832;28;20060;-58
2023/07/28 09:54:36;;;;;;;8.48;5.00;;;20.70;99.90;;;;;;5074477;28;20075;-58
2023/07/28 09:57:04;;;;;;;7.10;4.78;;;20.40;99.90;;;;;;5081084;28;20040;-59
2023/07/28 09:59:35;;;;;;;8.15;5.97;;;20.30;99.90;;;;;;5094778;28;20360;-59
2023/07/28 10:02:02;;;;;;;7.13;5.22;;;20.40;99.90;;;;;;5092482;28;20056;-58
2023/07/28 10:04:29;;;;;;;7.65;5.40;;;20.40;99.90;;;;;;5093788;28;20049;-58
2023/07/28 10:06:56;;;;;;;7.25;5.03;;;20.50;99.90;;;;;;5073603;28;20086;-58
2023/07/28 10:09:26;;;;;;;7.38;5.00;;;20.70;99.90;;;;;;5072777;28;20107;-58
2023/07/28 10:11:52;;;;;;;8.48;4.88;;;20.60;99.90;;;;;;5074900;28;20052;-58
2023/07/28 10:14:30;;;;;;;7.35;5.28;;;20.70;99.90;;;;;;5072065;28;20122;-58
2023/07/28 10:16:59;;;;;;;9.45;6.00;;;20.60;99.90;;;;;;5073662;28;20692;-58
2023/07/28 10:19:26;;;;;;;9.55;5.82;;;20.40;99.90;;;;;;5072377;28;20097;-59
2023/07/28 10:22:05;;;;;;;8.50;5.53;;;20.40;99.90;;;;;;5055115;28;20064;-59
2023/07/28 10:24:52;;;;;;;7.00;4.93;;;20.70;99.90;;;;;;5074067;28;20091;-58
2023/07/28 10:27:45;;;;;;;11.43;5.65;;;20.90;99.90;;;;;;5072024;28;20045;-58
2023/07/28 10:30:13;;;;;;;8.70;5.55;;;20.80;99.90;;;;;;5073638;28;20048;-58
2023/07/28 10:32:44;;;;;;;7.50;5.40;;;21.10;99.90;;;;;;5073332;28;20050;-58
2023/07/28 10:35:13;;;;;;;7.93;5.70;;;21.10;99.90;;;;;;5072326;28;20053;-58
2023/07/28 10:37:42;;;;;;;7.22;5.22;;;21.30;99.90;;;;;;5074053;28;20051;-58
2023/07/28 10:40:30;;;;;;;7.32;4.00;;;21.20;99.90;;;;;;5074211;28;20047;-58
2023/07/28 10:42:58;;;;;;;7.75;4.88;;;21.30;99.90;;;;;;5059054;28;20135;-58
2023/07/28 10:45:25;;;;;;;6.85;4.60;;;21.10;99.90;;;;;;5076355;28;20457;-57
2023/07/28 10:47:56;;;;;;;6.50;3.67;;;21.00;99.90;;;;;;5075996;28;20044;-58
2023/07/28 10:50:23;;;;;;;6.93;4.15;;;21.00;99.90;;;;;;5077863;28;20032;-56
2023/07/28 10:52:49;;;;;;;6.22;3.85;;;21.00;99.90;;;;;;5074741;28;20086;-58
2023/07/28 10:55:16;;;;;;;5.63;3.72;;;21.00;99.90;;;;;;5077329;28;20570;-58
2023/07/28 10:57:45;;;;;;;6.28;3.85;;;21.10;99.90;;;;;;5089675;28;20048;-58
2023/07/28 11:00:13;;;;;;;5.50;2.95;;;21.30;99.90;;;;;;5079395;28;20044;-58
2023/07/28 11:02:45;;;;;;;6.18;2.80;;;21.50;99.90;;;;;;5096850;28;20105;-58
2023/07/28 11:05:13;;;;;;;5.47;2.70;;;21.50;99.90;;;;;;5095303;28;20044;-58
2023/07/28 11:07:43;;;;;;;5.07;2.83;;;21.80;99.90;;;;;;5097589;28;20118;-58
2023/07/28 11:10:11;;;;;;;5.57;3.13;;;21.70;99.90;;;;;;5095158;28;20098;-58
2023/07/28 11:12:42;;;;;;;6.20;3.30;;;21.70;99.90;;;;;;5096915;28;20104;-59
2023/07/28 11:15:11;;;;;;;6.50;3.17;;;21.70;99.90;;;;;;5095707;28;20066;-62
2023/07/28 11:17:41;;;;;;;6.88;3.33;;;21.60;99.90;;;;;;5096023;28;20055;-59
2023/07/28 11:20:18;;;;;;;6.47;2.92;;;21.80;99.90;;;;;;5097099;28;20225;-58
2023/07/28 11:22:57;;;;;;;5.78;2.90;;;21.60;99.90;;;;;;5094777;28;20094;-58
2023/07/28 11:25:25;;;;;;;7.22;3.35;;;21.70;99.90;;;;;;5097034;28;20123;-58
2023/07/28 11:27:51;;;;;;;5.68;3.30;;;21.70;99.90;;;;;;5095116;28;20040;-58
2023/07/28 11:30:18;;;;;;;5.72;2.60;;;21.60;99.90;;;;;;5096344;28;20103;-58
2023/07/28 11:32:46;;;;;;;6.32;2.70;;;21.80;99.90;;;;;;5093829;28;20113;-57
2023/07/28 11:35:14;;;;;;;4.68;2.17;;;21.90;99.90;;;;;;5094394;28;20040;-58
2023/07/28 11:37:45;;;;;;;5.88;2.35;;;22.10;99.90;;;;;;5096994;28;20061;-60
2023/07/28 11:40:12;;;;;;;4.30;2.13;;;22.20;99.90;;;;;;5098557;28;20044;-60
2023/07/28 11:42:39;;;;;;;5.30;2.50;;;22.00;99.90;;;;;;5100368;28;20055;-58
2023/07/28 11:45:06;;;;;;;5.18;2.53;;;22.10;99.90;;;;;;5098979;28;20044;-59
2023/07/28 11:47:32;;;;;;;4.85;2.53;;;22.10;99.90;;;;;;5099275;28;20063;-60
2023/07/28 11:49:58;;;;;;;6.25;2.47;;;22.10;99.90;;;;;;5099044;28;20040;-60
2023/07/28 11:52:34;;;;;;;8.60;2.60;;;22.00;99.90;;;;;;5097573;28;20058;-60
2023/07/28 11:55:01;;;;;;;6.03;2.50;;;22.50;99.90;;;;;;5100214;28;20070;-60
2023/07/28 11:57:30;;;;;;;5.43;2.70;;;22.60;99.90;;;;;;5098124;28;20048;-60
2023/07/28 11:59:57;;;;;;;5.03;2.53;;;22.60;99.90;;;;;;5099721;28;20044;-59
2023/07/28 12:02:31;;;;;;;4.20;1.85;;;23.10;99.90;;;;;;5095735;28;20044;-59
2023/07/28 12:04:58;;;;;;;5.07;2.10;;;22.80;99.90;;;;;;5082668;28;20047;-59
2023/07/28 12:07:34;;;;;;;5.63;2.10;;;22.30;99.90;;;;;;5085317;28;20086;-59
2023/07/28 12:10:08;;;;;;;4.28;1.73;;;22.30;99.90;;;;;;5082395;28;20162;-60
2023/07/28 12:12:45;;;;;;;4.90;2.17;;;22.60;99.90;;;;;;5084913;28;20265;-60
2023/07/28 12:15:31;;;;;;;4.60;1.98;;;22.60;99.90;;;;;;5084181;28;20082;-60
2023/07/28 12:18:08;;;;;;;4.95;1.70;;;22.80;99.90;;;;;;5084971;28;20048;-60
2023/07/28 12:20:42;;;;;;;4.72;1.73;;;22.90;99.90;;;;;;5086076;28;20056;-60
2023/07/28 12:23:09;;;;;;;4.07;1.60;;;23.10;99.90;;;;;;5083216;28;20053;-60
2023/07/28 12:25:36;;;;;;;4.72;1.70;;;23.10;99.90;;;;;;5084161;28;20047;-60
2023/07/28 12:28:03;;;;;;;4.07;1.90;;;23.10;99.90;;;;;;5082741;28;20078;-60
2023/07/28 12:30:29;;;;;;;4.00;1.77;;;22.80;99.90;;;;;;5084451;28;20043;-61
2023/07/28 12:32:55;;;;;;;4.95;1.70;;;23.20;99.90;;;;;;5086077;28;20419;-59